Letzte Messung
Zeitpunkt Temperatur Luftfeuchte Luftdruck
2021-07-31 04:23:02 19.19 ℃ 100 % 1003.46 hPa

Zeitpunkt Temperatur Luftfeuchte Luftdruck
2021-07-31 04:23:02 19.19 ℃ 100 % 1003.46 hPa
2021-07-31 04:13:02 19.13 ℃ 100 % 1003.51 hPa
2021-07-31 04:03:02 19.4 ℃ 100 % 1003.57 hPa
2021-07-31 03:53:02 19.43 ℃ 100 % 1003.6 hPa
2021-07-31 03:43:02 19.76 ℃ 100 % 1003.61 hPa
2021-07-31 03:33:02 20.2 ℃ 100 % 1003.65 hPa
2021-07-31 03:23:02 20.32 ℃ 100 % 1003.65 hPa
2021-07-31 03:13:02 20.3 ℃ 100 % 1003.63 hPa
2021-07-31 03:03:02 20.33 ℃ 99.99 % 1003.65 hPa
2021-07-31 02:53:02 20.35 ℃ 99.99 % 1003.53 hPa
2021-07-31 02:43:02 20.72 ℃ 99.98 % 1003.56 hPa
2021-07-31 02:33:02 20.92 ℃ 99.95 % 1003.56 hPa
2021-07-31 02:23:02 21 ℃ 99.9 % 1003.65 hPa
2021-07-31 02:13:02 20.91 ℃ 99.8 % 1003.82 hPa
2021-07-31 02:03:02 21.03 ℃ 99.61 % 1003.98 hPa
2021-07-31 01:53:02 20.89 ℃ 99.22 % 1004.1 hPa
2021-07-31 01:43:02 20.8 ℃ 98.43 % 1004.18 hPa
2021-07-31 01:33:02 21.08 ℃ 96.87 % 1004.25 hPa
2021-07-31 01:23:03 20.96 ℃ 97.67 % 1004.38 hPa
2021-07-31 01:13:03 21.02 ℃ 96.78 % 1004.46 hPa
2021-07-31 01:03:02 21 ℃ 96.55 % 1004.51 hPa
2021-07-31 00:53:03 21 ℃ 96.13 % 1004.56 hPa
2021-07-31 00:43:02 20.92 ℃ 97.38 % 1004.65 hPa
2021-07-31 00:33:02 20.73 ℃ 97.82 % 1004.71 hPa
2021-07-31 00:23:03 20.63 ℃ 97.35 % 1004.66 hPa
2021-07-31 00:13:02 20.98 ℃ 94.7 % 1004.55 hPa
2021-07-31 00:03:03 21.34 ℃ 90.18 % 1004.4 hPa
2021-07-30 23:53:03 21.5 ℃ 88.13 % 1004.32 hPa
2021-07-30 23:43:03 21.5 ℃ 88.54 % 1004.37 hPa
2021-07-30 23:33:03 21.59 ℃ 87.9 % 1004.47 hPa
2021-07-30 23:23:03 21.51 ℃ 89.43 % 1004.57 hPa
2021-07-30 23:13:03 21.54 ℃ 90.46 % 1004.63 hPa
2021-07-30 23:03:03 21.63 ℃ 90.3 % 1004.72 hPa
2021-07-30 22:53:03 21.88 ℃ 88.91 % 1004.83 hPa
2021-07-30 22:43:03 22.35 ℃ 85.13 % 1004.93 hPa
2021-07-30 22:33:03 22.31 ℃ 84.95 % 1004.99 hPa
Durchschnitt 20.84 ℃ 95.89 % 1004.16 hPa

weatherino

Wetterdaten aus der Harmsstraße 54 in 24114 Kiel (4. OG, außen), die per BME280 und einem ESP-32 erhoben werden.

Unter https://wetter.janbpunkt.de/weather.xml steht eine entsprechende XML bereit, die das jüngste Messergebnis enthält.

Da der weatherino ab und zu ausfällt/gewartet wird, können Messpunkte fehlen.

Mehr zu dem Projekt findet man hier.

SSL, keine Cookies, keine IP-Adress-Speicherung, keine Verarbeitung von personenbezogenen Daten

Impressum

Extremwerte

Nachfolgend die Extremwerte seit Aufzeichnung.

BezeichnungWertZeitpunkt
Niedrigste Temperatur-6.4 ℃2021-02-13 07:00:53
Höchste Temperatur33.66 ℃2021-06-17 17:11:09
Niedrigster Luftdruck979.11 hPa2021-01-22 05:21:46
Höchster Luftdruck1074.18 hPa2020-12-24 17:16:12
Niedrigste Luftfeuchtigkeit22.3 %2020-04-13 15:26:13
Höchste Luftfeuchtigkeit100 %2021-07-31 04:23:02